createdAt,value
2018-08-03T00:00:33.527Z,9.73
2018-08-03T00:03:02.141Z,6.80
2018-08-03T00:05:30.660Z,6.50
2018-08-03T00:07:59.246Z,6.13
2018-08-03T00:10:27.835Z,6.37
2018-08-03T00:12:56.489Z,11.20
2018-08-03T00:15:25.140Z,5.83
2018-08-03T00:17:53.657Z,9.83
2018-08-03T00:20:22.193Z,6.07
2018-08-03T00:22:51.055Z,11.30
2018-08-03T00:25:19.569Z,11.57
2018-08-03T00:27:48.114Z,8.97
2018-08-03T00:30:16.834Z,8.47
2018-08-03T00:32:45.539Z,9.17
2018-08-03T00:35:14.059Z,7.33
2018-08-03T00:37:42.569Z,7.00
2018-08-03T00:40:11.271Z,8.00
2018-08-03T00:42:39.800Z,9.13
2018-08-03T00:45:08.337Z,6.40
2018-08-03T00:47:37.003Z,6.47
2018-08-03T00:50:05.754Z,7.30
2018-08-03T00:52:34.513Z,11.97
2018-08-03T00:55:03.372Z,10.57
2018-08-03T00:57:32.218Z,6.57
2018-08-03T01:00:00.840Z,9.27
2018-08-03T01:02:29.374Z,9.97
2018-08-03T01:04:57.958Z,9.27
2018-08-03T01:07:26.471Z,9.67
2018-08-03T01:09:55.101Z,7.73
2018-08-03T01:12:23.632Z,7.43
2018-08-03T01:14:52.172Z,9.00
2018-08-03T01:17:20.700Z,6.60
2018-08-03T01:19:49.327Z,8.53
2018-08-03T01:22:18.242Z,7.07
2018-08-03T01:24:46.860Z,7.00
2018-08-03T01:27:15.402Z,7.30
2018-08-03T01:29:44.082Z,7.53
2018-08-03T01:32:12.597Z,7.10
2018-08-03T01:34:41.160Z,8.17
2018-08-03T01:37:09.673Z,7.90
2018-08-03T01:39:38.721Z,7.80
2018-08-03T01:42:07.295Z,8.37
2018-08-03T01:44:35.912Z,11.40
2018-08-03T01:47:04.493Z,11.27
2018-08-03T01:49:33.091Z,10.93
2018-08-03T01:52:01.637Z,10.77
2018-08-03T01:54:30.221Z,12.73
2018-08-03T01:56:58.738Z,13.17
2018-08-03T01:59:27.284Z,11.60
2018-08-03T02:01:55.907Z,11.97
2018-08-03T02:04:24.771Z,9.17
2018-08-03T02:06:53.393Z,10.00
2018-08-03T02:09:21.899Z,9.83
2018-08-03T02:11:50.615Z,13.33
2018-08-03T02:14:19.250Z,10.40
2018-08-03T02:16:47.748Z,10.60
2018-08-03T02:19:16.240Z,10.87
2018-08-03T02:21:44.770Z,9.60
2018-08-03T02:24:13.304Z,9.93
2018-08-03T02:26:41.767Z,9.10
2018-08-03T02:29:10.377Z,10.80
2018-08-03T02:31:38.944Z,10.17
2018-08-03T02:34:07.604Z,9.03
2018-08-03T02:36:36.088Z,10.00
2018-08-03T02:39:07.795Z,9.43
2018-08-03T02:41:36.438Z,9.83
2018-08-03T02:44:04.995Z,10.23
2018-08-03T02:46:33.544Z,11.87
2018-08-03T02:49:02.537Z,13.00
2018-08-03T02:51:31.200Z,11.43
2018-08-03T02:53:59.788Z,10.63
2018-08-03T02:56:28.334Z,10.73
2018-08-03T02:58:56.869Z,12.63
2018-08-03T03:01:25.397Z,12.57
2018-08-03T03:03:54.466Z,12.73
2018-08-03T03:06:23.077Z,11.87
2018-08-03T03:08:51.570Z,11.30
2018-08-03T03:11:20.110Z,12.17
2018-08-03T03:13:48.736Z,13.00
2018-08-03T03:16:17.283Z,12.47
2018-08-03T03:18:45.780Z,13.97
2018-08-03T03:21:14.623Z,12.17
2018-08-03T03:23:43.189Z,14.00
2018-08-03T03:26:11.741Z,15.20
2018-08-03T03:28:40.355Z,12.47
2018-08-03T03:31:08.929Z,12.13
2018-08-03T03:33:37.602Z,12.70
2018-08-03T03:36:06.222Z,13.10
2018-08-03T03:38:34.708Z,13.40
2018-08-03T03:41:03.381Z,17.50
2018-08-03T03:43:31.892Z,16.70
2018-08-03T03:46:00.412Z,15.97
2018-08-03T03:48:29.141Z,15.80
2018-08-03T03:50:57.691Z,15.60
2018-08-03T03:53:26.379Z,16.00
2018-08-03T03:55:54.894Z,15.57
2018-08-03T03:58:26.140Z,18.30
2018-08-03T04:00:54.908Z,17.30
2018-08-03T04:03:24.007Z,16.83
2018-08-03T04:05:53.014Z,17.47
2018-08-03T04:08:21.611Z,18.87
2018-08-03T04:10:50.254Z,17.43
2018-08-03T04:13:18.787Z,18.33
2018-08-03T04:15:51.383Z,16.33
2018-08-03T04:18:22.700Z,17.43
2018-08-03T04:20:52.580Z,16.13
2018-08-03T04:23:21.593Z,16.13
2018-08-03T04:25:50.390Z,17.40
2018-08-03T04:28:18.889Z,17.20
2018-08-03T04:30:47.397Z,17.23
2018-08-03T04:33:16.105Z,19.03
2018-08-03T04:35:44.660Z,18.50
2018-08-03T04:38:13.226Z,17.23
2018-08-03T04:40:41.753Z,18.30
2018-08-03T04:43:10.292Z,17.63
2018-08-03T04:45:38.860Z,19.33
2018-08-03T04:48:07.539Z,19.33
2018-08-03T04:50:36.154Z,17.20
2018-08-03T04:53:04.709Z,17.97
2018-08-03T04:55:33.563Z,19.90
2018-08-03T04:58:02.115Z,16.90
2018-08-03T05:00:30.669Z,17.37
2018-08-03T05:02:59.379Z,18.13
2018-08-03T05:05:27.950Z,22.90
2018-08-03T05:07:56.447Z,21.97
2018-08-03T05:10:25.002Z,17.93
2018-08-03T05:12:53.587Z,18.97
2018-08-03T05:15:22.212Z,18.30
2018-08-03T05:17:50.700Z,17.67
2018-08-03T05:20:19.336Z,17.33
2018-08-03T05:22:47.851Z,20.97
2018-08-03T05:25:16.359Z,18.10
2018-08-03T05:27:44.912Z,18.40
2018-08-03T05:30:13.454Z,16.60
2018-08-03T05:32:42.153Z,22.37
2018-08-03T05:35:10.756Z,21.70
2018-08-03T05:37:39.316Z,17.23
2018-08-03T05:40:07.985Z,18.30
2018-08-03T05:42:36.858Z,17.77
2018-08-03T05:45:06.650Z,17.27
2018-08-03T05:47:35.293Z,18.77
2018-08-03T05:50:04.070Z,25.27
2018-08-03T05:52:32.681Z,18.10
2018-08-03T05:55:01.247Z,17.57
2018-08-03T05:57:29.871Z,20.07
2018-08-03T05:59:58.760Z,20.03
2018-08-03T06:02:27.376Z,21.53
2018-08-03T06:04:55.967Z,18.30
2018-08-03T06:07:24.574Z,18.80
2018-08-03T06:09:53.191Z,18.40
2018-08-03T06:12:21.729Z,20.50
2018-08-03T06:14:50.313Z,19.47
2018-08-03T06:17:18.834Z,22.67
2018-08-03T06:19:47.494Z,18.57
2018-08-03T06:22:16.048Z,19.30
2018-08-03T06:24:44.669Z,13.87
2018-08-03T06:27:13.237Z,16.40
2018-08-03T06:29:42.124Z,17.57
2018-08-03T06:32:10.580Z,16.23
2018-08-03T06:34:39.146Z,21.33
2018-08-03T06:37:08.817Z,15.13
2018-08-03T06:39:37.343Z,16.47
2018-08-03T06:42:05.872Z,18.90
2018-08-03T06:44:34.478Z,18.37
2018-08-03T06:47:02.964Z,22.27
2018-08-03T06:49:31.640Z,21.00
2018-08-03T06:52:00.124Z,17.07
2018-08-03T06:54:28.753Z,18.00
2018-08-03T06:56:57.339Z,13.87
2018-08-03T06:59:25.980Z,20.03
2018-08-03T07:01:54.835Z,16.97
2018-08-03T07:04:24.281Z,19.57
2018-08-03T07:06:52.900Z,16.93
2018-08-03T07:09:21.750Z,15.80
2018-08-03T07:11:50.269Z,18.87
2018-08-03T07:14:19.036Z,21.20
2018-08-03T07:16:47.718Z,17.90
2018-08-03T07:19:16.254Z,17.50
2018-08-03T07:21:44.817Z,17.10
2018-08-03T07:24:13.349Z,16.37
2018-08-03T07:26:41.856Z,16.63
2018-08-03T07:29:10.483Z,17.53
2018-08-03T07:31:39.031Z,13.60
2018-08-03T07:34:07.597Z,19.50
2018-08-03T07:36:36.175Z,18.20
2018-08-03T07:39:07.319Z,14.20
2018-08-03T07:41:35.896Z,16.33
2018-08-03T07:44:04.493Z,13.47
2018-08-03T07:46:33.037Z,13.43
2018-08-03T07:49:01.573Z,18.23
2018-08-03T07:51:30.081Z,19.03
2018-08-03T07:53:58.628Z,13.97
2018-08-03T07:56:27.136Z,11.23
2018-08-03T07:58:55.668Z,11.03
2018-08-03T08:01:24.447Z,10.13
2018-08-03T08:03:52.941Z,10.43
2018-08-03T08:06:21.435Z,11.40
2018-08-03T08:08:50.112Z,10.03
2018-08-03T08:11:18.600Z,9.60
2018-08-03T08:13:47.536Z,10.53
2018-08-03T08:16:16.177Z,11.73
2018-08-03T08:18:44.705Z,10.27
2018-08-03T08:21:13.334Z,8.40
2018-08-03T08:23:41.940Z,10.10
2018-08-03T08:26:10.524Z,14.27
2018-08-03T08:28:39.043Z,10.57
2018-08-03T08:31:07.855Z,11.60
2018-08-03T08:33:36.476Z,11.30
2018-08-03T08:36:05.012Z,16.00
2018-08-03T08:38:33.663Z,8.97
2018-08-03T08:41:02.225Z,10.47
2018-08-03T08:43:30.809Z,9.70
2018-08-03T08:45:59.275Z,10.00
2018-08-03T08:48:27.807Z,15.10
2018-08-03T08:50:56.754Z,9.30
2018-08-03T08:53:25.240Z,12.93
2018-08-03T08:55:53.831Z,10.40
2018-08-03T08:58:22.423Z,11.17
2018-08-03T09:00:51.175Z,11.00
2018-08-03T09:03:19.782Z,10.07
2018-08-03T09:05:48.384Z,7.47
2018-08-03T09:08:17.022Z,8.47
2018-08-03T09:10:45.597Z,7.37
2018-08-03T09:13:14.361Z,7.63
2018-08-03T09:15:43.322Z,12.70
2018-08-03T09:18:11.882Z,8.03
2018-08-03T09:20:40.452Z,10.63
2018-08-03T09:23:09.038Z,7.70
2018-08-03T09:25:38.218Z,7.37
2018-08-03T09:28:07.271Z,9.87
2018-08-03T09:30:35.932Z,6.70
2018-08-03T09:33:04.842Z,8.13
2018-08-03T09:35:33.472Z,7.07
2018-08-03T09:38:02.037Z,8.80
2018-08-03T09:40:30.618Z,9.83
2018-08-03T09:42:59.275Z,7.17
2018-08-03T09:45:27.783Z,8.93
2018-08-03T09:47:56.320Z,6.27
2018-08-03T09:50:24.856Z,6.43
2018-08-03T09:52:53.359Z,7.63
2018-08-03T09:55:21.948Z,7.63
2018-08-03T09:57:50.620Z,8.03
2018-08-03T10:00:23.608Z,7.30
2018-08-03T10:02:52.115Z,7.20
2018-08-03T10:05:20.683Z,7.83
2018-08-03T10:07:49.233Z,7.80
2018-08-03T10:10:17.805Z,6.37
2018-08-03T10:12:46.395Z,6.97
2018-08-03T10:15:14.905Z,6.37
2018-08-03T10:17:43.408Z,6.70
2018-08-03T10:20:11.975Z,9.07
2018-08-03T10:22:40.559Z,6.67
2018-08-03T10:25:09.231Z,6.93
2018-08-03T10:27:37.927Z,4.93
2018-08-03T10:30:06.761Z,6.90
2018-08-03T10:32:36.095Z,10.80
2018-08-03T10:35:05.262Z,6.37
2018-08-03T10:37:33.744Z,5.03
2018-08-03T10:40:02.272Z,7.80
2018-08-03T10:42:30.833Z,7.27
2018-08-03T10:44:59.472Z,8.50
2018-08-03T10:47:27.967Z,9.53
2018-08-03T10:49:56.570Z,9.80
2018-08-03T10:52:25.163Z,6.87
2018-08-03T10:54:54.320Z,7.13
2018-08-03T10:57:22.911Z,9.30
2018-08-03T10:59:51.599Z,11.30
2018-08-03T11:02:20.171Z,8.33
2018-08-03T11:04:48.958Z,10.70
2018-08-03T11:07:17.593Z,21.53
2018-08-03T11:09:46.223Z,7.67
2018-08-03T11:12:15.299Z,13.83
2018-08-03T11:14:43.842Z,6.77
2018-08-03T11:17:12.378Z,16.63
2018-08-03T11:19:41.092Z,13.00
2018-08-03T11:22:09.632Z,7.10
2018-08-03T11:24:38.233Z,6.53
2018-08-03T11:27:07.060Z,18.57
2018-08-03T11:29:35.682Z,11.37
2018-08-03T11:32:04.243Z,5.93
2018-08-03T11:34:32.969Z,5.33
2018-08-03T11:37:01.600Z,7.27
2018-08-03T11:39:30.110Z,22.40
2018-08-03T11:41:58.721Z,8.87
2018-08-03T11:44:27.286Z,7.43
2018-08-03T11:46:55.863Z,8.13
2018-08-03T11:49:24.633Z,8.57
2018-08-03T11:51:53.232Z,5.73
2018-08-03T11:54:21.747Z,6.47
2018-08-03T11:56:50.282Z,5.27
2018-08-03T11:59:19.539Z,9.00
2018-08-03T12:01:48.079Z,8.13
2018-08-03T12:04:16.621Z,5.60
2018-08-03T12:06:45.156Z,5.53
2018-08-03T12:09:13.768Z,10.03
2018-08-03T12:11:42.309Z,7.83
2018-08-03T12:14:11.566Z,5.77
2018-08-03T12:16:40.099Z,8.43
2018-08-03T12:19:08.891Z,6.30
2018-08-03T12:21:37.711Z,17.20
2018-08-03T12:24:06.467Z,6.43
2018-08-03T12:26:35.170Z,6.60
2018-08-03T12:29:03.810Z,7.53
2018-08-03T12:31:32.461Z,6.67
2018-08-03T12:34:01.127Z,8.17
2018-08-03T12:36:29.911Z,5.90
2018-08-03T12:38:58.468Z,5.50
2018-08-03T12:41:27.172Z,6.37
2018-08-03T12:43:55.690Z,5.33
2018-08-03T12:46:24.254Z,8.27
2018-08-03T12:48:53.112Z,9.93
2018-08-03T12:51:21.705Z,7.37
2018-08-03T12:53:50.252Z,6.93
2018-08-03T12:56:18.741Z,5.60
2018-08-03T12:58:47.641Z,5.25
2018-08-03T13:01:16.257Z,8.30
2018-08-03T13:03:44.855Z,6.00
2018-08-03T13:06:13.516Z,5.25
2018-08-03T13:08:42.309Z,8.18
2018-08-03T13:11:11.089Z,6.25
2018-08-03T13:13:40.281Z,6.15
2018-08-03T13:16:08.872Z,4.55
2018-08-03T13:18:37.680Z,6.03
2018-08-03T13:21:17.398Z,4.95
2018-08-03T13:23:56.468Z,6.60
2018-08-03T13:26:25.785Z,5.50
2018-08-03T13:28:54.920Z,5.80
2018-08-03T13:31:24.806Z,5.93
2018-08-03T13:33:53.461Z,5.97
2018-08-03T13:36:23.226Z,7.37
2018-08-03T13:38:52.059Z,5.83
2018-08-03T13:41:20.661Z,5.93
2018-08-03T13:43:49.226Z,4.90
2018-08-03T13:46:18.200Z,10.03
2018-08-03T13:48:47.907Z,9.17
2018-08-03T13:51:17.582Z,6.30
2018-08-03T13:53:47.011Z,6.53
2018-08-03T13:56:16.225Z,4.97
2018-08-03T13:58:45.987Z,4.67
2018-08-03T14:01:25.852Z,4.40
2018-08-03T14:03:54.799Z,4.85
2018-08-03T14:06:23.297Z,6.22
2018-08-03T14:08:51.872Z,4.83
2018-08-03T14:11:20.712Z,4.50
2018-08-03T14:13:49.345Z,4.40
2018-08-03T14:16:17.933Z,6.53
2018-08-03T14:18:47.831Z,5.70
2018-08-03T14:21:16.609Z,5.47
2018-08-03T14:23:45.249Z,7.87
2018-08-03T14:26:13.917Z,6.42
2018-08-03T14:28:42.737Z,6.05
2018-08-03T14:31:11.416Z,5.83
2018-08-03T14:33:40.643Z,6.20
2018-08-03T14:36:09.302Z,5.70
2018-08-03T14:38:37.954Z,6.40
2018-08-03T14:41:06.658Z,5.70
2018-08-03T14:43:35.278Z,6.93
2018-08-03T14:46:04.005Z,9.07
2018-08-03T14:48:32.812Z,5.10
2018-08-03T14:51:02.863Z,5.43
2018-08-03T14:53:31.444Z,5.62
2018-08-03T14:55:59.975Z,5.17
2018-08-03T14:58:28.534Z,8.33
2018-08-03T15:00:57.186Z,4.60
2018-08-03T15:03:26.404Z,5.03
2018-08-03T15:05:55.112Z,5.45
2018-08-03T15:08:23.640Z,6.20
2018-08-03T15:10:52.501Z,7.45
2018-08-03T15:13:21.097Z,7.05
2018-08-03T15:15:49.699Z,5.03
2018-08-03T15:18:18.630Z,4.55
2018-08-03T15:20:47.149Z,4.93
2018-08-03T15:23:15.786Z,8.27
2018-08-03T15:25:44.376Z,5.90
2018-08-03T15:28:12.990Z,6.43
2018-08-03T15:30:41.580Z,7.50
2018-08-03T15:33:10.174Z,4.83
2018-08-03T15:35:38.714Z,7.57
2018-08-03T15:38:07.523Z,6.47
2018-08-03T15:40:36.365Z,7.47
2018-08-03T15:43:05.359Z,6.57
2018-08-03T15:45:35.321Z,7.47
2018-08-03T15:48:04.123Z,4.30
2018-08-03T15:50:32.765Z,5.63
2018-08-03T15:53:01.525Z,4.70
2018-08-03T15:55:30.116Z,7.30
2018-08-03T15:57:58.672Z,5.00
2018-08-03T16:00:27.302Z,6.17
2018-08-03T16:02:55.937Z,6.97
2018-08-03T16:05:24.516Z,4.73
2018-08-03T16:07:53.127Z,5.20
2018-08-03T16:10:21.656Z,4.73
2018-08-03T16:12:50.242Z,7.33
2018-08-03T16:15:18.866Z,4.70
2018-08-03T16:17:47.464Z,4.30
2018-08-03T16:20:16.052Z,8.03
2018-08-03T16:22:44.627Z,5.07
2018-08-03T16:25:13.199Z,7.73
2018-08-03T16:27:41.856Z,6.60
2018-08-03T16:30:11.009Z,4.53
2018-08-03T16:32:40.070Z,5.93
2018-08-03T16:35:09.506Z,3.97
2018-08-03T16:37:38.018Z,4.50
2018-08-03T16:40:07.820Z,6.60
2018-08-03T16:42:36.710Z,5.40
2018-08-03T16:45:06.281Z,5.33
2018-08-03T16:47:35.162Z,4.33
2018-08-03T16:50:03.809Z,5.70
2018-08-03T16:52:36.008Z,6.70
2018-08-03T16:55:04.628Z,5.17
2018-08-03T16:57:33.326Z,8.43
2018-08-03T17:00:02.282Z,5.60
2018-08-03T17:02:30.854Z,4.70
2018-08-03T17:04:59.424Z,4.67
2018-08-03T17:07:28.094Z,4.67
2018-08-03T17:09:56.695Z,5.77
2018-08-03T17:12:25.306Z,5.80
2018-08-03T17:14:53.811Z,5.73
2018-08-03T17:17:22.512Z,7.73
2018-08-03T17:19:51.260Z,6.17
2018-08-03T17:22:20.798Z,7.07
2018-08-03T17:24:49.315Z,7.03
2018-08-03T17:27:17.909Z,7.83
2018-08-03T17:29:46.453Z,5.70
2018-08-03T17:32:15.383Z,5.20
2018-08-03T17:34:43.988Z,7.57
2018-08-03T17:37:12.557Z,6.10
2018-08-03T17:39:41.105Z,4.43
2018-08-03T17:42:09.653Z,5.43
2018-08-03T17:44:38.401Z,7.57
2018-08-03T17:47:06.967Z,5.97
2018-08-03T17:49:35.720Z,8.00
2018-08-03T17:52:04.319Z,8.70
2018-08-03T17:54:32.860Z,5.07
2018-08-03T17:57:01.393Z,5.83
2018-08-03T17:59:30.000Z,6.50
2018-08-03T18:01:58.525Z,8.10
2018-08-03T18:04:27.097Z,6.27
2018-08-03T18:06:56.933Z,4.30
2018-08-03T18:09:25.668Z,4.10
2018-08-03T18:11:54.192Z,3.90
2018-08-03T18:14:22.847Z,8.67
2018-08-03T18:16:51.409Z,4.13
2018-08-03T18:19:19.989Z,7.60
2018-08-03T18:21:48.640Z,7.50
2018-08-03T18:24:17.274Z,6.20
2018-08-03T18:26:45.814Z,7.67
2018-08-03T18:29:14.501Z,4.83
2018-08-03T18:31:43.043Z,9.67
2018-08-03T18:34:11.641Z,7.27
2018-08-03T18:36:40.197Z,9.27
2018-08-03T18:39:10.486Z,5.27
2018-08-03T18:41:39.300Z,6.30
2018-08-03T18:44:08.095Z,7.10
2018-08-03T18:46:36.686Z,4.83
2018-08-03T18:49:05.299Z,3.20
2018-08-03T18:51:34.036Z,3.30
2018-08-03T18:54:02.656Z,4.20
2018-08-03T18:56:31.268Z,5.00
2018-08-03T18:58:59.816Z,5.57
2018-08-03T19:01:28.487Z,4.43
2018-08-03T19:03:57.146Z,3.97
2018-08-03T19:06:25.729Z,4.87
2018-08-03T19:08:54.346Z,4.30
2018-08-03T19:11:22.931Z,5.13
2018-08-03T19:13:51.694Z,4.83
2018-08-03T19:16:20.246Z,5.47
2018-08-03T19:18:48.819Z,4.23
2018-08-03T19:21:17.620Z,3.27
2018-08-03T19:23:46.232Z,3.37
2018-08-03T19:26:14.891Z,5.23
2018-08-03T19:28:44.349Z,4.57
2018-08-03T19:31:12.986Z,5.17
2018-08-03T19:33:41.533Z,3.50
2018-08-03T19:36:10.375Z,7.47
2018-08-03T19:38:39.035Z,2.97
2018-08-03T19:41:07.594Z,2.03
2018-08-03T19:43:36.146Z,3.00
2018-08-03T19:46:04.966Z,4.63
2018-08-03T19:48:33.779Z,3.33
2018-08-03T19:51:02.380Z,4.83
2018-08-03T19:53:30.984Z,2.60
2018-08-03T19:55:59.643Z,2.03
2018-08-03T19:58:28.417Z,1.70
2018-08-03T20:00:57.004Z,6.17
2018-08-03T20:03:31.889Z,2.97
2018-08-03T20:06:00.504Z,2.90
2018-08-03T20:08:29.022Z,2.63
2018-08-03T20:10:57.672Z,1.90
2018-08-03T20:13:26.388Z,4.10
2018-08-03T20:15:54.944Z,2.30
2018-08-03T20:18:23.587Z,2.40
2018-08-03T20:20:52.176Z,3.80
2018-08-03T20:23:20.711Z,3.97
2018-08-03T20:25:49.336Z,3.17
2018-08-03T20:28:18.046Z,3.43
2018-08-03T20:30:46.766Z,2.63
2018-08-03T20:33:15.363Z,4.03
2018-08-03T20:35:44.069Z,1.90
2018-08-03T20:38:12.759Z,4.10
2018-08-03T20:40:41.433Z,3.10
2018-08-03T20:43:10.079Z,3.13
2018-08-03T20:45:38.691Z,4.53
2018-08-03T20:48:07.238Z,2.77
2018-08-03T20:50:35.801Z,2.47
2018-08-03T20:53:04.667Z,2.57
2018-08-03T20:55:33.505Z,4.20
2018-08-03T20:58:02.136Z,3.67
2018-08-03T21:00:30.744Z,3.47
2018-08-03T21:02:59.382Z,4.67
2018-08-03T21:05:28.038Z,2.77
2018-08-03T21:07:56.540Z,3.67
2018-08-03T21:10:25.161Z,4.73
2018-08-03T21:12:53.948Z,2.50
2018-08-03T21:15:22.514Z,7.00
2018-08-03T21:17:51.074Z,3.20
2018-08-03T21:20:19.576Z,5.07
2018-08-03T21:22:48.120Z,2.93
2018-08-03T21:25:16.806Z,2.37
2018-08-03T21:27:45.325Z,3.27
2018-08-03T21:30:13.887Z,2.33
2018-08-03T21:32:42.702Z,2.33
2018-08-03T21:35:11.224Z,3.80
2018-08-03T21:37:39.751Z,3.60
2018-08-03T21:40:08.337Z,5.03
2018-08-03T21:42:36.871Z,2.87
2018-08-03T21:45:06.080Z,3.80
2018-08-03T21:47:34.647Z,3.10
2018-08-03T21:50:03.602Z,2.90
2018-08-03T21:52:32.357Z,2.63
2018-08-03T21:55:01.012Z,4.60
2018-08-03T21:57:29.938Z,4.43
2018-08-03T21:59:58.703Z,3.67
2018-08-03T22:02:27.494Z,3.37
2018-08-03T22:04:56.154Z,2.77
2018-08-03T22:07:24.867Z,4.50
2018-08-03T22:09:53.557Z,5.43
2018-08-03T22:12:22.173Z,3.17
2018-08-03T22:14:50.719Z,2.87
2018-08-03T22:17:19.515Z,2.77
2018-08-03T22:19:48.189Z,4.43
2018-08-03T22:22:16.741Z,3.30
2018-08-03T22:24:45.321Z,2.20
2018-08-03T22:27:13.935Z,2.63
2018-08-03T22:29:42.444Z,2.17
2018-08-03T22:32:11.626Z,4.53
2018-08-03T22:34:40.132Z,5.70
2018-08-03T22:37:08.732Z,2.50
2018-08-03T22:39:37.220Z,4.60
2018-08-03T22:42:06.083Z,3.50
2018-08-03T22:44:34.698Z,2.57
2018-08-03T22:47:03.222Z,4.47
2018-08-03T22:49:31.787Z,3.67
2018-08-03T22:52:00.340Z,5.60
2018-08-03T22:54:29.124Z,3.70
2018-08-03T22:56:57.743Z,2.50
2018-08-03T22:59:26.317Z,4.73
2018-08-03T23:01:54.929Z,3.53
2018-08-03T23:04:23.601Z,4.33
2018-08-03T23:06:52.170Z,3.03
2018-08-03T23:09:20.705Z,4.87
2018-08-03T23:11:49.308Z,6.03
2018-08-03T23:14:18.035Z,4.03
2018-08-03T23:16:46.614Z,2.57
2018-08-03T23:19:15.304Z,3.37
2018-08-03T23:21:44.196Z,2.93
2018-08-03T23:24:12.817Z,3.57
2018-08-03T23:26:41.465Z,4.00
2018-08-03T23:29:09.979Z,2.77
2018-08-03T23:31:38.678Z,3.33
2018-08-03T23:34:07.320Z,3.87
2018-08-03T23:36:35.905Z,7.90
2018-08-03T23:39:06.266Z,3.80
2018-08-03T23:41:34.841Z,4.80
2018-08-03T23:44:03.375Z,2.97
2018-08-03T23:46:31.904Z,3.33
2018-08-03T23:49:00.549Z,4.57
2018-08-03T23:51:29.053Z,6.03
2018-08-03T23:53:57.627Z,3.53
2018-08-03T23:56:26.414Z,4.07
2018-08-03T23:58:54.958Z,4.27
